Decoded Metar for EIDL (DONEGAL in IRELAND) (IATA:N/A) | Meteo·Mobile Aviation Weather
aviador You're here:

EIDL Decoded Metar

DONEGAL in IRELAND
Report Time2019-07-21 17:30:00
UTC Time2019-07-21 17:58:40
Flight Rules mvfr MVFR
Wind190° at 16 kt
W.Decomp.*RWY 21: 15.4 kt HW 4.4 kt LCW
Visibility9999 m
Phenomena:Light Rain
Clouds:Scattered 017 Hf
Broken 023 Hf
Overcast 033 Hf
Expected CloudBase > 800 ft AGL from Temp-Dew spread
Ceiling2,300 ft
Temp18°C (ISA +3)
Dew Point16°C (88% RH)
AAT14.2°C
QNH1006 hPa
Density Alt866 ft
Elevation29 ft
Report Wrong Elevation
Raw Report
METAR EIDL 211730Z 19016KT 9999 -RA SCT017 BKN023 OVC033 18/16 Q1006=

Extra information for EIDL:More info

Metar Taf Metar & Taf Last 4 Metars F.Rules Stats Wind Profile Meteogram Temp Stats Airport Information Weather charts Add Link Nearby VenuesMetar ALERT Operation Metar Decoded Social comments